sensor_id;sensor_type;location;lat;lon;timestamp;P1;durP1;ratioP1;P2;durP2;ratioP2
9108;SDS011;4590;51.462;6.692;2023-11-22T07:20:11;12.18;;;6.78;;
9108;SDS011;4590;51.462;6.692;2023-11-22T07:22:41;13.95;;;8.02;;
9108;SDS011;4590;51.462;6.692;2023-11-22T07:25:27;12.23;;;7.13;;
9108;SDS011;4590;51.462;6.692;2023-11-22T07:27:54;11.95;;;6.93;;
9108;SDS011;4590;51.462;6.692;2023-11-22T07:30:19;10.13;;;7.03;;
9108;SDS011;4590;51.462;6.692;2023-11-22T07:32:47;13.85;;;6.80;;
9108;SDS011;4590;51.462;6.692;2023-11-22T07:35:14;10.57;;;7.28;;
9108;SDS011;4590;51.462;6.692;2023-11-22T07:40:09;11.75;;;6.00;;
9108;SDS011;4590;51.462;6.692;2023-11-22T07:42:38;10.45;;;6.90;;
9108;SDS011;4590;51.462;6.692;2023-11-22T07:45:05;12.52;;;7.20;;
9108;SDS011;4590;51.462;6.692;2023-11-22T07:47:30;12.15;;;7.10;;
9108;SDS011;4590;51.462;6.692;2023-11-22T07:49:57;11.75;;;6.70;;
9108;SDS011;4590;51.462;6.692;2023-11-22T07:53:00;11.85;;;7.63;;
9108;SDS011;4590;51.462;6.692;2023-11-22T07:55:35;12.98;;;7.28;;
9108;SDS011;4590;51.462;6.692;2023-11-22T07:58:03;11.98;;;7.32;;
9108;SDS011;4590;51.462;6.692;2023-11-22T08:00:40;12.55;;;7.53;;
9108;SDS011;4590;51.462;6.692;2023-11-22T08:03:15;14.90;;;8.70;;
9108;SDS011;4590;51.462;6.692;2023-11-22T08:05:45;13.57;;;8.23;;
9108;SDS011;4590;51.462;6.692;2023-11-22T08:08:31;14.32;;;8.32;;
9108;SDS011;4590;51.462;6.692;2023-11-22T08:11:39;15.27;;;7.85;;
9108;SDS011;4590;51.462;6.692;2023-11-22T08:17:45;11.88;;;7.38;;
9108;SDS011;4590;51.462;6.692;2023-11-22T08:26:53;13.68;;;7.25;;
9108;SDS011;4590;51.462;6.692;2023-11-22T08:29:18;12.15;;;7.28;;
9108;SDS011;4590;51.462;6.692;2023-11-22T08:32:04;12.38;;;6.68;;
9108;SDS011;4590;51.462;6.692;2023-11-22T08:38:34;10.55;;;6.43;;
9108;SDS011;4590;51.462;6.692;2023-11-22T08:41:38;11.13;;;5.95;;
9108;SDS011;4590;51.462;6.692;2023-11-22T08:44:41;10.85;;;6.18;;
9108;SDS011;4590;51.462;6.692;2023-11-22T15:53:14;9.93;;;6.47;;
9108;SDS011;4590;51.462;6.692;2023-11-22T15:55:42;12.60;;;7.72;;
9108;SDS011;4590;51.462;6.692;2023-11-22T15:58:08;11.27;;;6.72;;
9108;SDS011;4590;51.462;6.692;2023-11-22T16:00:34;9.93;;;6.13;;
9108;SDS011;4590;51.462;6.692;2023-11-22T16:03:00;10.40;;;6.82;;
9108;SDS011;4590;51.462;6.692;2023-11-22T16:05:26;10.57;;;6.30;;
9108;SDS011;4590;51.462;6.692;2023-11-22T16:07:53;11.65;;;6.68;;
9108;SDS011;4590;51.462;6.692;2023-11-22T16:10:18;11.13;;;6.80;;
9108;SDS011;4590;51.462;6.692;2023-11-22T16:12:44;13.97;;;8.13;;
9108;SDS011;4590;51.462;6.692;2023-11-22T16:15:09;13.30;;;8.27;;
9108;SDS011;4590;51.462;6.692;2023-11-22T16:17:36;14.55;;;9.75;;
9108;SDS011;4590;51.462;6.692;2023-11-22T16:20:02;13.77;;;8.90;;
9108;SDS011;4590;51.462;6.692;2023-11-22T16:22:35;12.48;;;7.55;;
9108;SDS011;4590;51.462;6.692;2023-11-22T16:25:05;14.73;;;8.40;;
9108;SDS011;4590;51.462;6.692;2023-11-22T16:27:32;12.27;;;7.47;;
9108;SDS011;4590;51.462;6.692;2023-11-22T16:29:58;12.27;;;7.75;;
9108;SDS011;4590;51.462;6.692;2023-11-22T16:32:23;15.73;;;11.13;;
9108;SDS011;4590;51.462;6.692;2023-11-22T16:34:49;13.60;;;9.70;;
9108;SDS011;4590;51.462;6.692;2023-11-22T16:37:14;16.20;;;9.20;;
9108;SDS011;4590;51.462;6.692;2023-11-22T16:39:39;12.47;;;8.20;;
9108;SDS011;4590;51.462;6.692;2023-11-22T16:42:05;17.70;;;11.15;;
9108;SDS011;4590;51.462;6.692;2023-11-22T16:44:31;17.90;;;11.53;;
9108;SDS011;4590;51.462;6.692;2023-11-22T16:46:56;16.33;;;10.13;;
9108;SDS011;4590;51.462;6.692;2023-11-22T16:49:23;15.93;;;10.57;;
9108;SDS011;4590;51.462;6.692;2023-11-22T16:51:49;17.80;;;10.57;;
9108;SDS011;4590;51.462;6.692;2023-11-22T16:54:14;18.97;;;9.57;;
9108;SDS011;4590;51.462;6.692;2023-11-22T16:56:39;19.57;;;11.57;;
9108;SDS011;4590;51.462;6.692;2023-11-22T16:59:04;18.67;;;10.30;;
9108;SDS011;4590;51.462;6.692;2023-11-22T17:01:32;17.27;;;10.82;;
9108;SDS011;4590;51.462;6.692;2023-11-22T17:03:57;15.57;;;10.03;;
9108;SDS011;4590;51.462;6.692;2023-11-22T17:06:23;15.53;;;9.80;;
9108;SDS011;4590;51.462;6.692;2023-11-22T17:11:15;16.88;;;9.80;;
9108;SDS011;4590;51.462;6.692;2023-11-22T17:13:40;20.87;;;11.67;;
9108;SDS011;4590;51.462;6.692;2023-11-22T17:16:05;19.93;;;12.63;;
9108;SDS011;4590;51.462;6.692;2023-11-22T17:18:31;21.87;;;13.60;;
9108;SDS011;4590;51.462;6.692;2023-11-22T17:20:56;20.17;;;13.07;;
9108;SDS011;4590;51.462;6.692;2023-11-22T17:23:21;23.30;;;15.13;;
9108;SDS011;4590;51.462;6.692;2023-11-22T17:25:47;27.93;;;16.77;;
9108;SDS011;4590;51.462;6.692;2023-11-22T17:28:12;24.03;;;14.80;;
9108;SDS011;4590;51.462;6.692;2023-11-22T17:30:38;29.02;;;18.80;;
9108;SDS011;4590;51.462;6.692;2023-11-22T17:33:03;24.63;;;15.27;;
9108;SDS011;4590;51.462;6.692;2023-11-22T17:35:29;25.50;;;15.67;;
9108;SDS011;4590;51.462;6.692;2023-11-22T17:37:55;28.10;;;16.98;;
9108;SDS011;4590;51.462;6.692;2023-11-22T17:40:22;27.05;;;16.35;;
9108;SDS011;4590;51.462;6.692;2023-11-22T17:42:49;22.02;;;13.43;;
9108;SDS011;4590;51.462;6.692;2023-11-22T17:45:14;21.63;;;12.60;;
9108;SDS011;4590;51.462;6.692;2023-11-22T17:47:39;22.03;;;13.67;;
9108;SDS011;4590;51.462;6.692;2023-11-22T17:50:05;22.90;;;13.57;;
9108;SDS011;4590;51.462;6.692;2023-11-22T17:52:31;25.88;;;13.50;;
9108;SDS011;4590;51.462;6.692;2023-11-22T17:54:56;23.77;;;14.57;;
9108;SDS011;4590;51.462;6.692;2023-11-22T17:59:48;23.27;;;12.80;;
9108;SDS011;4590;51.462;6.692;2023-11-22T18:02:13;22.60;;;12.90;;
9108;SDS011;4590;51.462;6.692;2023-11-22T18:04:40;20.30;;;12.10;;
9108;SDS011;4590;51.462;6.692;2023-11-22T18:07:05;21.43;;;12.10;;
9108;SDS011;4590;51.462;6.692;2023-11-22T18:09:31;21.15;;;12.32;;
9108;SDS011;4590;51.462;6.692;2023-11-22T18:11:58;22.60;;;13.25;;
9108;SDS011;4590;51.462;6.692;2023-11-22T18:14:24;23.57;;;13.33;;
9108;SDS011;4590;51.462;6.692;2023-11-22T18:16:50;19.63;;;11.63;;
9108;SDS011;4590;51.462;6.692;2023-11-22T18:19:15;21.87;;;12.87;;
9108;SDS011;4590;51.462;6.692;2023-11-22T18:21:41;22.93;;;13.97;;
9108;SDS011;4590;51.462;6.692;2023-11-22T18:24:07;22.20;;;13.55;;
9108;SDS011;4590;51.462;6.692;2023-11-22T18:26:35;21.17;;;11.93;;
9108;SDS011;4590;51.462;6.692;2023-11-22T18:29:00;25.17;;;13.50;;
9108;SDS011;4590;51.462;6.692;2023-11-22T18:31:26;24.00;;;14.03;;
9108;SDS011;4590;51.462;6.692;2023-11-22T18:33:51;25.93;;;14.60;;
9108;SDS011;4590;51.462;6.692;2023-11-22T18:36:16;24.37;;;14.03;;
9108;SDS011;4590;51.462;6.692;2023-11-22T18:38:44;23.88;;;14.43;;
9108;SDS011;4590;51.462;6.692;2023-11-22T18:41:12;28.77;;;15.70;;
9108;SDS011;4590;51.462;6.692;2023-11-22T18:43:37;26.73;;;15.13;;
9108;SDS011;4590;51.462;6.692;2023-11-22T18:46:03;24.03;;;14.50;;
9108;SDS011;4590;51.462;6.692;2023-11-22T18:48:29;24.30;;;14.40;;
9108;SDS011;4590;51.462;6.692;2023-11-22T18:53:21;25.65;;;14.48;;
9108;SDS011;4590;51.462;6.692;2023-11-22T18:55:46;24.87;;;14.43;;
9108;SDS011;4590;51.462;6.692;2023-11-22T18:58:11;26.13;;;14.03;;
9108;SDS011;4590;51.462;6.692;2023-11-22T19:00:36;22.63;;;12.50;;
9108;SDS011;4590;51.462;6.692;2023-11-22T19:03:02;27.23;;;14.73;;
9108;SDS011;4590;51.462;6.692;2023-11-22T19:05:27;25.77;;;14.77;;
9108;SDS011;4590;51.462;6.692;2023-11-22T19:25:58;28.17;;;15.30;;
9108;SDS011;4590;51.462;6.692;2023-11-22T19:28:27;26.87;;;15.27;;
9108;SDS011;4590;51.462;6.692;2023-11-22T19:30:53;28.00;;;14.82;;
9108;SDS011;4590;51.462;6.692;2023-11-22T19:33:19;26.13;;;14.95;;
9108;SDS011;4590;51.462;6.692;2023-11-22T19:35:44;25.73;;;14.93;;
9108;SDS011;4590;51.462;6.692;2023-11-22T19:48:23;27.40;;;14.88;;
